createdAt,value
2023-04-22T00:02:29.613Z,12.30
2023-04-22T00:05:02.043Z,12.30
2023-04-22T00:07:33.406Z,12.30
2023-04-22T00:10:03.103Z,12.30
2023-04-22T00:12:36.705Z,12.20
2023-04-22T00:15:11.193Z,12.20
2023-04-22T00:17:42.789Z,12.20
2023-04-22T00:20:13.394Z,12.20
2023-04-22T00:22:46.921Z,12.10
2023-04-22T00:25:19.452Z,12.10
2023-04-22T00:28:11.648Z,12.10
2023-04-22T00:30:41.722Z,12.00
2023-04-22T00:33:14.665Z,12.00
2023-04-22T00:35:47.915Z,12.00
2023-04-22T00:38:19.355Z,11.90
2023-04-22T00:40:49.248Z,11.90
2023-04-22T00:43:19.794Z,11.90
2023-04-22T00:45:51.688Z,11.90
2023-04-22T00:48:28.680Z,11.90
2023-04-22T00:50:59.673Z,11.90
2023-04-22T00:53:35.020Z,11.90
2023-04-22T00:56:12.496Z,11.90
2023-04-22T00:58:44.196Z,11.80
2023-04-22T01:01:16.666Z,11.80
2023-04-22T01:03:45.886Z,11.80
2023-04-22T01:06:15.327Z,11.70
2023-04-22T01:08:47.940Z,11.70
2023-04-22T01:11:16.916Z,11.70
2023-04-22T01:13:46.483Z,11.70
2023-04-22T01:16:18.418Z,11.70
2023-04-22T01:18:47.036Z,11.70
2023-04-22T01:21:17.201Z,11.60
2023-04-22T01:23:48.089Z,11.60
2023-04-22T01:26:21.949Z,11.60
2023-04-22T01:31:39.535Z,11.50
2023-04-22T01:34:10.859Z,11.50
2023-04-22T01:36:39.816Z,11.40
2023-04-22T01:39:15.128Z,11.40
2023-04-22T01:41:45.757Z,11.40
2023-04-22T01:44:16.819Z,11.40
2023-04-22T01:46:48.382Z,11.40
2023-04-22T01:49:17.822Z,11.40
2023-04-22T01:51:46.738Z,11.30
2023-04-22T01:54:18.964Z,11.30
2023-04-22T01:59:53.527Z,11.20
2023-04-22T02:02:24.715Z,11.20
2023-04-22T02:04:56.076Z,11.20
2023-04-22T02:07:25.015Z,11.10
2023-04-22T02:09:55.157Z,11.10
2023-04-22T02:12:24.170Z,11.10
2023-04-22T02:14:55.758Z,11.10
2023-04-22T02:17:28.616Z,11.00
2023-04-22T02:19:58.018Z,11.00
2023-04-22T02:22:30.003Z,10.90
2023-04-22T02:25:07.444Z,10.90
2023-04-22T02:27:36.897Z,10.90
2023-04-22T02:30:08.000Z,10.80
2023-04-22T02:32:38.977Z,10.80
2023-04-22T02:35:11.233Z,10.80
2023-04-22T02:37:49.732Z,10.80
2023-04-22T02:40:21.112Z,10.80
2023-04-22T02:42:50.256Z,10.80
2023-04-22T02:45:19.221Z,10.70
2023-04-22T02:47:48.590Z,10.70
2023-04-22T02:50:17.360Z,10.70
2023-04-22T02:52:46.294Z,10.70
2023-04-22T02:55:16.397Z,10.70
2023-04-22T02:57:49.118Z,10.60
2023-04-22T03:00:19.230Z,10.60
2023-04-22T03:02:51.642Z,10.60
2023-04-22T03:05:26.278Z,10.60
2023-04-22T03:07:56.719Z,10.50
2023-04-22T03:10:32.958Z,10.50
2023-04-22T03:13:05.444Z,10.50
2023-04-22T03:15:34.659Z,10.50
2023-04-22T03:18:03.427Z,10.50
2023-04-22T03:20:32.454Z,10.50
2023-04-22T03:23:01.399Z,10.50
2023-04-22T03:25:30.917Z,10.40
2023-04-22T03:28:04.217Z,10.40
2023-04-22T03:30:32.996Z,10.40
2023-04-22T03:33:01.838Z,10.30
2023-04-22T03:35:39.162Z,10.30
2023-04-22T03:38:08.426Z,10.30
2023-04-22T03:40:39.966Z,10.30
2023-04-22T03:43:23.236Z,10.30
2023-04-22T03:46:10.236Z,10.30
2023-04-22T03:48:45.697Z,10.30
2023-04-22T03:51:24.408Z,10.30
2023-04-22T03:53:54.038Z,10.30
2023-04-22T03:56:26.403Z,10.30
2023-04-22T03:59:00.491Z,10.30
2023-04-22T04:01:34.209Z,10.20
2023-04-22T04:04:11.022Z,10.20
2023-04-22T04:06:54.568Z,10.20
2023-04-22T04:09:24.997Z,10.20
2023-04-22T04:11:54.601Z,10.10
2023-04-22T04:14:24.794Z,10.10
2023-04-22T04:16:54.047Z,10.10
2023-04-22T04:19:29.133Z,10.10
2023-04-22T04:22:01.952Z,10.00
2023-04-22T04:24:36.966Z,10.00
2023-04-22T04:27:14.664Z,10.00
2023-04-22T04:29:52.854Z,10.00
2023-04-22T04:32:40.429Z,10.00
2023-04-22T04:35:14.732Z,9.90
2023-04-22T04:37:47.665Z,9.90
2023-04-22T04:40:17.839Z,9.90
2023-04-22T04:43:20.957Z,9.90
2023-04-22T04:46:00.615Z,9.90
2023-04-22T04:48:43.708Z,9.90
2023-04-22T04:51:20.067Z,9.90
2023-04-22T04:54:00.445Z,9.90
2023-04-22T04:56:38.913Z,9.90
2023-04-22T04:59:22.696Z,9.90
2023-04-22T05:01:54.834Z,9.90
2023-04-22T05:04:27.176Z,9.90
2023-04-22T05:06:58.213Z,9.90
2023-04-22T05:09:29.481Z,9.90
2023-04-22T05:12:03.072Z,9.90
2023-04-22T05:14:37.457Z,9.90
2023-04-22T05:17:08.380Z,9.90
2023-04-22T05:19:43.630Z,10.00
2023-04-22T05:22:16.235Z,10.00
2023-04-22T05:24:59.032Z,10.00
2023-04-22T05:27:30.870Z,10.00
2023-04-22T05:30:04.201Z,10.00
2023-04-22T05:32:38.804Z,10.00
2023-04-22T05:35:11.911Z,10.10
2023-04-22T05:37:42.206Z,10.10
2023-04-22T05:40:12.897Z,10.10
2023-04-22T05:42:44.042Z,10.20
2023-04-22T05:45:16.103Z,10.20
2023-04-22T05:47:47.233Z,10.30
2023-04-22T05:50:17.580Z,10.30
2023-04-22T05:53:10.603Z,10.30
2023-04-22T05:55:41.103Z,10.30
2023-04-22T05:58:12.297Z,10.40
2023-04-22T06:00:55.101Z,10.50
2023-04-22T06:03:45.428Z,10.50
2023-04-22T06:06:15.459Z,10.60
2023-04-22T06:08:44.659Z,10.70
2023-04-22T06:11:34.659Z,10.80
2023-04-22T06:14:06.617Z,10.80
2023-04-22T06:16:37.057Z,10.90
2023-04-22T06:19:10.541Z,11.00
2023-04-22T06:21:40.880Z,11.10
2023-04-22T06:24:11.839Z,11.20
2023-04-22T06:26:41.611Z,11.40
2023-04-22T06:29:11.608Z,11.60
2023-04-22T06:31:42.709Z,11.70
2023-04-22T06:34:19.910Z,11.80
2023-04-22T06:36:54.901Z,12.10
2023-04-22T06:39:26.364Z,12.30
2023-04-22T06:42:09.538Z,12.60
2023-04-22T06:45:14.006Z,12.90
2023-04-22T06:48:04.248Z,13.30
2023-04-22T06:50:49.251Z,13.50
2023-04-22T06:53:19.303Z,13.80
2023-04-22T06:55:50.212Z,14.00
2023-04-22T06:58:19.075Z,14.20
2023-04-22T07:00:49.989Z,14.40
2023-04-22T07:03:19.156Z,14.60
2023-04-22T07:06:02.265Z,14.80
2023-04-22T07:08:37.020Z,15.00
2023-04-22T07:11:06.373Z,15.30
2023-04-22T07:13:43.122Z,15.50
2023-04-22T07:16:13.479Z,15.60
2023-04-22T07:18:43.642Z,15.80
2023-04-22T07:21:13.999Z,15.80
2023-04-22T07:23:43.114Z,16.00
2023-04-22T07:26:11.876Z,16.20
2023-04-22T07:28:41.942Z,16.30
2023-04-22T07:31:13.674Z,16.50
2023-04-22T07:33:44.023Z,16.60
2023-04-22T07:36:14.490Z,16.80
2023-04-22T07:38:45.376Z,16.90
2023-04-22T07:41:14.722Z,17.10
2023-04-22T07:43:43.522Z,17.30
2023-04-22T07:46:14.715Z,17.70
2023-04-22T07:48:43.533Z,18.10
2023-04-22T07:51:14.415Z,18.40
2023-04-22T07:53:43.235Z,18.70
2023-04-22T07:56:14.369Z,19.10
2023-04-22T07:58:44.443Z,19.40
2023-04-22T08:01:16.288Z,19.70
2023-04-22T08:03:48.454Z,19.90
2023-04-22T08:06:19.735Z,20.20
2023-04-22T08:08:48.828Z,20.60
2023-04-22T08:11:18.124Z,21.10
2023-04-22T08:13:50.145Z,21.40
2023-04-22T08:16:19.102Z,21.50
2023-04-22T08:18:51.361Z,21.40
2023-04-22T08:21:21.932Z,21.60
2023-04-22T08:23:50.553Z,21.60
2023-04-22T08:26:19.418Z,21.50
2023-04-22T08:28:49.057Z,21.70
2023-04-22T08:31:18.584Z,21.90
2023-04-22T08:33:47.624Z,22.00
2023-04-22T08:36:17.125Z,22.10
2023-04-22T08:38:49.505Z,22.20
2023-04-22T08:41:25.476Z,21.90
2023-04-22T08:43:56.337Z,22.10
2023-04-22T08:46:28.762Z,22.20
2023-04-22T08:48:59.550Z,22.00
2023-04-22T08:51:29.282Z,22.00
2023-04-22T08:54:02.767Z,22.10
2023-04-22T08:56:34.444Z,22.20
2023-04-22T08:59:03.847Z,22.50
2023-04-22T09:01:34.845Z,23.00
2023-04-22T09:04:07.022Z,23.60
2023-04-22T09:06:41.821Z,24.40
2023-04-22T09:09:14.769Z,25.20
2023-04-22T09:11:45.900Z,25.70
2023-04-22T09:14:15.277Z,26.00
2023-04-22T09:16:50.167Z,26.40
2023-04-22T09:19:20.375Z,26.70
2023-04-22T09:21:53.683Z,26.90
2023-04-22T09:24:26.775Z,27.10
2023-04-22T09:26:58.355Z,27.30
2023-04-22T09:29:32.580Z,27.50
2023-04-22T09:32:01.873Z,27.60
2023-04-22T09:34:31.123Z,27.80
2023-04-22T09:37:00.338Z,28.40
2023-04-22T09:39:32.344Z,29.30
2023-04-22T09:42:06.035Z,29.60
2023-04-22T09:44:37.069Z,29.60
2023-04-22T09:47:06.748Z,29.90
2023-04-22T09:49:39.746Z,30.10
2023-04-22T09:52:11.689Z,30.10
2023-04-22T09:54:52.819Z,29.90
2023-04-22T09:57:22.450Z,29.50
2023-04-22T09:59:54.400Z,29.60
2023-04-22T10:02:32.435Z,30.00
2023-04-22T10:05:10.884Z,30.60
2023-04-22T10:07:40.467Z,31.00
2023-04-22T10:10:12.117Z,31.30
2023-04-22T10:12:44.100Z,31.80
2023-04-22T10:15:13.871Z,32.40
2023-04-22T10:17:44.469Z,32.90
2023-04-22T10:20:21.088Z,33.30
2023-04-22T10:22:56.998Z,33.20
2023-04-22T10:25:28.966Z,33.10
2023-04-22T10:28:05.359Z,33.40
2023-04-22T10:30:40.724Z,34.00
2023-04-22T10:33:43.239Z,34.10
2023-04-22T10:36:20.186Z,33.80
2023-04-22T10:39:22.193Z,34.20
2023-04-22T10:42:10.245Z,34.50
2023-04-22T10:44:51.799Z,35.20
2023-04-22T10:47:29.407Z,35.90
2023-04-22T10:50:16.710Z,35.90
2023-04-22T10:52:52.913Z,36.50
2023-04-22T10:55:24.359Z,36.60
2023-04-22T10:57:55.333Z,36.20
2023-04-22T11:00:53.370Z,36.50
2023-04-22T11:03:31.216Z,36.90
2023-04-22T11:06:27.729Z,36.90
2023-04-22T11:09:13.746Z,37.10
2023-04-22T11:11:42.534Z,37.40
2023-04-22T11:14:14.247Z,37.30
2023-04-22T11:16:48.804Z,37.10
2023-04-22T11:19:20.219Z,36.90
2023-04-22T11:21:51.170Z,37.30
2023-04-22T11:24:21.403Z,37.40
2023-04-22T11:26:57.209Z,37.90
2023-04-22T11:29:27.638Z,38.20
2023-04-22T11:31:58.929Z,38.40
2023-04-22T11:34:28.057Z,37.90
2023-04-22T11:36:56.897Z,37.90
2023-04-22T11:39:37.632Z,38.30
2023-04-22T11:42:13.350Z,38.00
2023-04-22T11:44:47.116Z,37.80
2023-04-22T11:47:17.080Z,36.60
2023-04-22T11:49:59.378Z,36.30
2023-04-22T11:52:50.602Z,36.70
2023-04-22T11:55:26.749Z,36.90
2023-04-22T11:58:01.515Z,37.40
2023-04-22T12:00:34.637Z,37.80
2023-04-22T12:03:05.474Z,37.50
2023-04-22T12:05:38.334Z,36.70
2023-04-22T12:08:10.729Z,35.80
2023-04-22T12:10:45.670Z,35.90
2023-04-22T12:13:21.780Z,36.00
2023-04-22T12:15:57.119Z,35.80
2023-04-22T12:18:39.264Z,35.60
2023-04-22T12:21:12.105Z,34.70
2023-04-22T12:23:44.805Z,33.50
2023-04-22T12:26:15.430Z,32.30
2023-04-22T12:28:45.134Z,32.00
2023-04-22T12:31:16.979Z,31.10
2023-04-22T12:33:47.456Z,31.30
2023-04-22T12:36:17.723Z,31.50
2023-04-22T12:38:46.761Z,30.40
2023-04-22T12:41:15.945Z,30.40
2023-04-22T12:43:47.297Z,30.30
2023-04-22T12:46:18.502Z,30.00
2023-04-22T12:48:48.311Z,29.40
2023-04-22T12:51:25.120Z,29.10
2023-04-22T12:53:53.731Z,28.70
2023-04-22T12:56:24.824Z,28.50
2023-04-22T12:58:54.826Z,28.30
2023-04-22T13:01:25.105Z,28.10
2023-04-22T13:03:55.249Z,27.80
2023-04-22T13:06:26.167Z,27.70
2023-04-22T13:08:54.999Z,27.60
2023-04-22T13:11:25.512Z,27.60
2023-04-22T13:13:56.295Z,27.50
2023-04-22T13:16:26.393Z,27.30
2023-04-22T13:18:55.233Z,27.20
2023-04-22T13:21:24.116Z,26.80
2023-04-22T13:23:53.663Z,26.50
2023-04-22T13:26:22.658Z,26.20
2023-04-22T13:28:52.420Z,25.80
2023-04-22T13:31:21.470Z,25.70
2023-04-22T13:33:51.608Z,25.60
2023-04-22T13:36:20.512Z,25.90
2023-04-22T13:38:52.030Z,25.90
2023-04-22T13:41:20.833Z,26.10
2023-04-22T13:43:54.493Z,26.20
2023-04-22T13:46:23.818Z,26.00
2023-04-22T13:48:56.100Z,25.90
2023-04-22T13:51:25.538Z,26.00
2023-04-22T13:53:57.721Z,25.90
2023-04-22T13:56:29.187Z,25.80
2023-04-22T13:58:58.337Z,25.70
2023-04-22T14:01:27.627Z,25.50
2023-04-22T14:03:58.423Z,25.40
2023-04-22T14:06:28.144Z,25.40
2023-04-22T14:08:59.687Z,25.30
2023-04-22T14:11:29.949Z,25.30
2023-04-22T14:14:00.772Z,25.20
2023-04-22T14:16:30.695Z,25.20
2023-04-22T14:19:04.310Z,25.00
2023-04-22T14:21:33.865Z,24.90
2023-04-22T14:24:02.392Z,24.70
2023-04-22T14:26:33.386Z,24.60
2023-04-22T14:29:02.595Z,24.40
2023-04-22T14:31:35.019Z,24.30
2023-04-22T14:34:06.644Z,24.20
2023-04-22T14:36:35.923Z,24.20
2023-04-22T14:39:07.901Z,24.10
2023-04-22T14:41:40.613Z,24.00
2023-04-22T14:44:09.845Z,23.90
2023-04-22T14:46:42.940Z,24.00
2023-04-22T14:49:14.413Z,24.00
2023-04-22T14:51:46.990Z,23.90
2023-04-22T14:54:16.166Z,23.90
2023-04-22T14:56:52.708Z,23.90
2023-04-22T14:59:25.336Z,23.90
2023-04-22T15:01:56.415Z,23.90
2023-04-22T15:04:31.131Z,23.80
2023-04-22T15:07:01.624Z,23.80
2023-04-22T15:09:30.609Z,23.90
2023-04-22T15:12:04.994Z,23.90
2023-04-22T15:14:35.820Z,24.00
2023-04-22T15:17:05.958Z,24.10
2023-04-22T15:19:38.027Z,24.10
2023-04-22T15:22:08.850Z,24.10
2023-04-22T15:24:37.769Z,24.00
2023-04-22T15:27:06.163Z,24.10
2023-04-22T15:29:34.503Z,24.10
2023-04-22T15:32:03.698Z,24.10
2023-04-22T15:34:32.437Z,24.10
2023-04-22T15:37:03.086Z,24.10
2023-04-22T15:39:32.101Z,24.00
2023-04-22T15:42:01.634Z,23.90
2023-04-22T15:44:31.648Z,23.80
2023-04-22T15:47:02.102Z,23.70
2023-04-22T15:49:33.078Z,23.70
2023-04-22T15:52:04.864Z,23.60
2023-04-22T15:54:33.477Z,23.50
2023-04-22T15:57:02.777Z,23.50
2023-04-22T15:59:32.952Z,23.40
2023-04-22T16:02:02.839Z,23.50
2023-04-22T16:04:32.807Z,23.30
2023-04-22T16:07:06.038Z,23.30
2023-04-22T16:09:34.740Z,23.10
2023-04-22T16:12:03.038Z,23.10
2023-04-22T16:14:32.193Z,23.00
2023-04-22T16:17:02.702Z,22.90
2023-04-22T16:19:32.243Z,22.90
2023-04-22T16:22:01.231Z,22.70
2023-04-22T16:24:30.794Z,22.60
2023-04-22T16:26:59.536Z,22.60
2023-04-22T16:29:31.263Z,22.50
2023-04-22T16:32:00.617Z,22.40
2023-04-22T16:34:33.351Z,22.30
2023-04-22T16:37:02.776Z,22.20
2023-04-22T16:39:35.551Z,22.20
2023-04-22T16:42:03.967Z,22.10
2023-04-22T16:44:32.427Z,22.00
2023-04-22T16:47:02.714Z,22.00
2023-04-22T16:49:33.184Z,22.00
2023-04-22T16:52:01.487Z,21.90
2023-04-22T16:54:32.380Z,21.80
2023-04-22T16:57:01.712Z,21.70
2023-04-22T16:59:30.345Z,21.60
2023-04-22T17:02:01.259Z,21.60
2023-04-22T17:04:31.029Z,21.60
2023-04-22T17:07:00.130Z,21.50
2023-04-22T17:09:35.608Z,21.50
2023-04-22T17:12:07.477Z,21.40
2023-04-22T17:14:37.590Z,21.40
2023-04-22T17:17:06.926Z,21.30
2023-04-22T17:19:36.697Z,21.30
2023-04-22T17:24:49.583Z,21.10
2023-04-22T17:27:18.589Z,21.00
2023-04-22T17:29:49.057Z,21.00
2023-04-22T17:32:17.442Z,20.90
2023-04-22T17:34:46.127Z,20.90
2023-04-22T17:37:14.573Z,20.80
2023-04-22T17:39:43.955Z,20.70
2023-04-22T17:42:16.202Z,20.60
2023-04-22T17:44:45.171Z,20.60
2023-04-22T17:47:13.886Z,20.50
2023-04-22T17:49:43.046Z,20.40
2023-04-22T17:52:11.696Z,20.40
2023-04-22T17:54:43.535Z,20.30
2023-04-22T17:57:23.606Z,20.20
2023-04-22T17:59:53.930Z,20.10
2023-04-22T18:02:23.449Z,20.10
2023-04-22T18:04:53.482Z,20.00
2023-04-22T18:07:22.869Z,20.00
2023-04-22T18:09:51.587Z,19.90
2023-04-22T18:12:29.211Z,19.80
2023-04-22T18:15:03.541Z,19.70
2023-04-22T18:17:34.711Z,19.70
2023-04-22T18:20:16.793Z,19.60
2023-04-22T18:22:52.575Z,19.50
2023-04-22T18:25:22.005Z,19.50
2023-04-22T18:27:56.628Z,19.40
2023-04-22T18:30:30.276Z,19.30
2023-04-22T18:33:07.423Z,19.20
2023-04-22T18:35:37.245Z,19.10
2023-04-22T18:38:06.516Z,19.10
2023-04-22T18:40:41.343Z,19.00
2023-04-22T18:43:15.336Z,18.90
2023-04-22T18:45:43.840Z,18.90
2023-04-22T18:48:15.423Z,18.80
2023-04-22T18:50:44.311Z,18.70
2023-04-22T18:53:12.812Z,18.70
2023-04-22T18:55:43.029Z,18.60
2023-04-22T18:58:13.508Z,18.50
2023-04-22T19:00:42.842Z,18.50
2023-04-22T19:03:13.869Z,18.40
2023-04-22T19:05:43.455Z,18.40
2023-04-22T19:08:11.905Z,18.40
2023-04-22T19:10:41.451Z,18.30
2023-04-22T19:13:22.316Z,18.40
2023-04-22T19:16:00.899Z,18.30
2023-04-22T19:18:33.467Z,18.30
2023-04-22T19:21:03.287Z,18.30
2023-04-22T19:23:33.890Z,18.20
2023-04-22T19:26:03.041Z,18.10
2023-04-22T19:28:33.876Z,18.10
2023-04-22T19:31:04.828Z,18.00
2023-04-22T19:33:35.641Z,17.90
2023-04-22T19:36:04.517Z,17.80
2023-04-22T19:38:33.400Z,17.70
2023-04-22T19:41:01.962Z,17.60
2023-04-22T19:43:32.216Z,17.50
2023-04-22T19:46:01.136Z,17.40
2023-04-22T19:48:33.936Z,17.30
2023-04-22T19:51:05.146Z,17.20
2023-04-22T19:53:37.448Z,17.10
2023-04-22T19:56:08.729Z,17.00
2023-04-22T19:58:37.415Z,16.90
2023-04-22T20:01:06.935Z,16.80
2023-04-22T20:03:39.889Z,16.70
2023-04-22T20:06:13.533Z,16.50
2023-04-22T20:08:44.129Z,16.40
2023-04-22T20:11:13.245Z,16.40
2023-04-22T20:13:42.870Z,16.30
2023-04-22T20:16:15.547Z,16.20
2023-04-22T20:18:49.152Z,16.10
2023-04-22T20:21:20.633Z,16.10
2023-04-22T20:23:52.791Z,16.00
2023-04-22T20:26:24.536Z,16.00
2023-04-22T20:28:56.840Z,15.90
2023-04-22T20:31:27.542Z,15.80
2023-04-22T20:33:58.245Z,15.70
2023-04-22T20:36:28.454Z,15.70
2023-04-22T20:39:00.589Z,15.50
2023-04-22T20:41:33.107Z,15.50
2023-04-22T20:44:02.946Z,15.40
2023-04-22T20:46:33.532Z,15.20
2023-04-22T20:49:03.240Z,15.10
2023-04-22T20:51:32.192Z,15.10
2023-04-22T20:54:01.004Z,15.00
2023-04-22T20:56:29.604Z,14.90
2023-04-22T20:58:58.163Z,14.90
2023-04-22T21:01:30.050Z,14.90
2023-04-22T21:03:59.996Z,14.80
2023-04-22T21:06:36.224Z,14.70
2023-04-22T21:09:10.917Z,14.70
2023-04-22T21:11:41.176Z,14.60
2023-04-22T21:14:12.345Z,14.60
2023-04-22T21:16:47.575Z,14.50
2023-04-22T21:19:20.707Z,14.50
2023-04-22T21:21:53.822Z,14.50
2023-04-22T21:24:25.548Z,14.40
2023-04-22T21:26:55.804Z,14.40
2023-04-22T21:29:30.840Z,14.40
2023-04-22T21:32:09.498Z,14.40
2023-04-22T21:34:39.813Z,14.40
2023-04-22T21:37:11.682Z,14.40
2023-04-22T21:39:41.153Z,14.40
2023-04-22T21:42:10.927Z,14.40
2023-04-22T21:44:40.694Z,14.40
2023-04-22T21:47:12.660Z,14.40
2023-04-22T21:49:41.347Z,14.40
2023-04-22T21:52:13.060Z,14.30
2023-04-22T21:54:44.144Z,14.30
2023-04-22T21:57:13.902Z,14.30
2023-04-22T21:59:43.688Z,14.30
2023-04-22T22:02:12.375Z,14.30
2023-04-22T22:04:44.148Z,14.40
2023-04-22T22:07:21.476Z,14.40
2023-04-22T22:09:51.467Z,14.40
2023-04-22T22:12:25.084Z,14.40
2023-04-22T22:14:55.952Z,14.40
2023-04-22T22:17:26.398Z,14.40
2023-04-22T22:19:56.313Z,14.40
2023-04-22T22:22:26.727Z,14.40
2023-04-22T22:24:55.435Z,14.40
2023-04-22T22:27:24.225Z,14.40
2023-04-22T22:29:55.254Z,14.40
2023-04-22T22:32:25.688Z,14.40
2023-04-22T22:34:55.188Z,14.50
2023-04-22T22:37:28.199Z,14.40
2023-04-22T22:39:58.531Z,14.40
2023-04-22T22:42:28.717Z,14.40
2023-04-22T22:44:59.421Z,14.40
2023-04-22T22:47:36.580Z,14.40
2023-04-22T22:50:07.281Z,14.40
2023-04-22T22:52:45.561Z,14.40
2023-04-22T22:55:14.333Z,14.40
2023-04-22T22:57:43.181Z,14.40
2023-04-22T23:00:15.068Z,14.40
2023-04-22T23:02:51.551Z,14.40
2023-04-22T23:05:22.426Z,14.40
2023-04-22T23:07:53.129Z,14.40
2023-04-22T23:10:22.800Z,14.40
2023-04-22T23:12:59.529Z,14.40
2023-04-22T23:15:28.259Z,14.40
2023-04-22T23:17:58.331Z,14.40
2023-04-22T23:20:30.668Z,14.40
2023-04-22T23:23:03.924Z,14.40
2023-04-22T23:25:37.177Z,14.40
2023-04-22T23:28:08.748Z,14.40
2023-04-22T23:30:39.415Z,14.40
2023-04-22T23:33:15.333Z,14.40
2023-04-22T23:35:50.914Z,14.40
2023-04-22T23:38:21.516Z,14.40
2023-04-22T23:40:51.708Z,14.50
2023-04-22T23:43:21.062Z,14.50
2023-04-22T23:45:53.656Z,14.50
2023-04-22T23:48:23.830Z,14.50
2023-04-22T23:50:52.351Z,14.50
2023-04-22T23:53:25.344Z,14.50
2023-04-22T23:55:55.197Z,14.50
2023-04-22T23:58:24.742Z,14.50
